Time;durP1;ratioP1;P1;durP2;ratioP2;P2;SDS_P1;SDS_P2;PMS_P1;PMS_P2;Temp;Humidity;BMP_temperature;BMP_pressure;BME280_temperature;BME280_humidity;BME280_pressure;Samples;Min_cycle;Max_cycle;Signal;HPM_P1;HPM_P2
2022/04/10 00:02:05;;;;;;;0.93;0.37;;;19.70;36.70;;;;;;5040727;28;92545;-65
2022/04/10 00:04:34;;;;;;;0.63;0.50;;;19.70;36.80;;;;;;5041214;28;88362;-65
2022/04/10 00:07:01;;;;;;;0.60;0.40;;;19.70;36.70;;;;;;5040960;28;88523;-65
2022/04/10 00:09:29;;;;;;;1.77;0.73;;;19.70;36.80;;;;;;5039915;28;91013;-65
2022/04/10 00:11:58;;;;;;;1.37;0.63;;;19.70;36.90;;;;;;5039890;28;92063;-65
2022/04/10 00:14:26;;;;;;;1.77;0.47;;;19.70;36.90;;;;;;5040401;28;88542;-65
2022/04/10 00:16:56;;;;;;;1.53;0.80;;;19.70;36.90;;;;;;5039892;28;88498;-65
2022/04/10 00:19:25;;;;;;;2.80;0.70;;;19.80;37.00;;;;;;5040161;28;92778;-65
2022/04/10 00:21:53;;;;;;;1.80;0.97;;;19.70;37.00;;;;;;5040331;28;90274;-65
2022/04/10 00:24:25;;;;;;;3.10;0.80;;;19.80;37.10;;;;;;5040438;28;91771;-66
2022/04/10 00:26:53;;;;;;;0.70;0.27;;;19.70;37.10;;;;;;5040608;28;88637;-65
2022/04/10 00:29:21;;;;;;;0.70;0.60;;;19.70;37.10;;;;;;5039395;27;90761;-65
2022/04/10 00:31:49;;;;;;;1.90;0.70;;;19.70;37.10;;;;;;5040228;28;92722;-66
2022/04/10 00:34:17;;;;;;;1.83;0.77;;;19.70;37.20;;;;;;5040572;28;88924;-65
2022/04/10 00:36:46;;;;;;;0.93;0.50;;;19.70;37.20;;;;;;5040048;28;88652;-65
2022/04/10 00:39:14;;;;;;;1.47;0.90;;;19.70;37.30;;;;;;5040036;28;90620;-64
2022/04/10 00:41:42;;;;;;;0.40;0.40;;;19.70;37.30;;;;;;5039475;28;90415;-65
2022/04/10 00:44:11;;;;;;;0.50;0.30;;;19.70;37.30;;;;;;5039635;28;89844;-66
2022/04/10 00:46:39;;;;;;;1.67;0.60;;;19.70;37.30;;;;;;5040978;27;88463;-65
2022/04/10 00:49:07;;;;;;;0.63;0.43;;;19.70;37.40;;;;;;5039913;27;90207;-66
2022/04/10 00:51:41;;;;;;;0.77;0.57;;;19.70;37.40;;;;;;5040206;28;92933;-65
2022/04/10 00:54:12;;;;;;;1.90;0.60;;;19.70;37.40;;;;;;5040497;27;89151;-65
2022/04/10 00:56:40;;;;;;;0.43;0.40;;;19.70;37.40;;;;;;5060106;27;89463;-66
2022/04/10 00:59:08;;;;;;;1.47;0.70;;;19.70;37.50;;;;;;5060403;27;90206;-65
2022/04/10 01:01:36;;;;;;;0.30;0.30;;;19.70;37.50;;;;;;5060132;27;90525;-65
2022/04/10 01:04:27;;;;;;;1.80;0.60;;;19.70;37.50;;;;;;5058965;27;88265;-66
2022/04/10 01:06:55;;;;;;;0.67;0.50;;;19.80;37.70;;;;;;5044953;27;88578;-66
2022/04/10 01:09:24;;;;;;;0.80;0.57;;;19.70;37.60;;;;;;5042551;27;90704;-64
2022/04/10 01:11:53;;;;;;;1.37;0.60;;;19.70;37.60;;;;;;5039866;27;90573;-64
2022/04/10 01:14:21;;;;;;;0.40;0.40;;;19.70;37.70;;;;;;5039916;28;90533;-64
2022/04/10 01:16:49;;;;;;;0.20;0.20;;;19.70;37.70;;;;;;5039798;28;88377;-64
2022/04/10 01:19:18;;;;;;;1.07;0.60;;;19.70;37.80;;;;;;5038833;27;90290;-65
2022/04/10 01:21:48;;;;;;;0.70;0.50;;;19.70;37.80;;;;;;5039586;28;90020;-65
2022/04/10 01:24:18;;;;;;;1.60;0.80;;;19.70;37.80;;;;;;5039389;28;88872;-65
2022/04/10 01:26:46;;;;;;;1.97;0.80;;;19.70;38.50;;;;;;5039815;28;88520;-65
2022/04/10 01:29:15;;;;;;;0.93;0.60;;;19.70;37.90;;;;;;5038947;28;89265;-66
2022/04/10 01:31:44;;;;;;;1.33;0.87;;;19.70;37.90;;;;;;5039108;28;92796;-64
2022/04/10 01:34:13;;;;;;;3.10;0.70;;;19.70;38.00;;;;;;5039520;27;88964;-64
2022/04/10 01:36:42;;;;;;;0.90;0.77;;;19.70;38.00;;;;;;5039918;28;88235;-65
2022/04/10 01:39:11;;;;;;;1.53;0.40;;;19.70;38.00;;;;;;5039109;28;90707;-65
2022/04/10 01:41:41;;;;;;;1.57;0.57;;;19.70;38.00;;;;;;5039477;28;89543;-66
2022/04/10 01:44:10;;;;;;;0.87;0.73;;;19.70;38.00;;;;;;5039358;27;88835;-63
2022/04/10 01:46:38;;;;;;;0.70;0.50;;;19.70;38.10;;;;;;5039656;27;88383;-65
2022/04/10 01:49:06;;;;;;;0.43;0.43;;;19.70;38.10;;;;;;5042696;28;90731;-66
2022/04/10 01:51:34;;;;;;;1.10;0.60;;;19.70;38.10;;;;;;5042793;28;93182;-66
2022/04/10 01:54:02;;;;;;;0.60;0.40;;;19.70;38.10;;;;;;5042836;28;88794;-63
2022/04/10 01:56:30;;;;;;;2.73;0.97;;;19.70;38.20;;;;;;5042502;27;88665;-66
2022/04/10 01:59:00;;;;;;;0.50;0.50;;;19.70;38.20;;;;;;5041807;28;90720;-65
2022/04/10 02:01:28;;;;;;;1.17;0.50;;;19.70;38.20;;;;;;5042178;28;90012;-66
2022/04/10 02:03:57;;;;;;;1.77;0.77;;;19.70;38.20;;;;;;5042504;28;88868;-65
2022/04/10 02:06:24;;;;;;;1.10;0.53;;;19.70;38.30;;;;;;5042554;28;88498;-65
2022/04/10 02:08:52;;;;;;;3.93;0.63;;;19.70;38.30;;;;;;5042130;28;90999;-65
2022/04/10 02:11:21;;;;;;;2.13;0.70;;;19.70;38.30;;;;;;5042323;28;93528;-65
2022/04/10 02:13:49;;;;;;;0.50;0.50;;;19.60;38.30;;;;;;5041339;28;88878;-65
2022/04/10 02:16:19;;;;;;;0.70;0.60;;;19.70;38.40;;;;;;5042654;27;88073;-65
2022/04/10 02:18:47;;;;;;;0.67;0.67;;;19.60;38.40;;;;;;5042158;28;90469;-64
2022/04/10 02:21:15;;;;;;;0.60;0.60;;;19.60;38.40;;;;;;5042306;28;89555;-64
2022/04/10 02:23:44;;;;;;;0.40;0.40;;;19.60;38.40;;;;;;5041357;28;89731;-65
2022/04/10 02:26:12;;;;;;;0.60;0.60;;;19.60;39.10;;;;;;5042150;28;88566;-65
2022/04/10 02:28:40;;;;;;;0.70;0.40;;;19.60;38.50;;;;;;5042030;28;90612;-65
2022/04/10 02:31:08;;;;;;;3.17;0.80;;;19.60;38.40;;;;;;5041367;27;89772;-64
2022/04/10 02:33:37;;;;;;;0.53;0.40;;;19.80;38.60;;;;;;5041517;27;89244;-65
2022/04/10 02:36:06;;;;;;;0.53;0.40;;;19.60;38.50;;;;;;5042086;28;88421;-65
2022/04/10 02:38:33;;;;;;;0.50;0.50;;;19.60;38.50;;;;;;5042021;28;90163;-65
2022/04/10 02:41:01;;;;;;;0.60;0.50;;;19.60;38.60;;;;;;5041807;28;90149;-64
2022/04/10 02:43:29;;;;;;;0.33;0.33;;;19.60;38.50;;;;;;5041110;28;88986;-65
2022/04/10 02:45:57;;;;;;;1.17;0.77;;;19.60;38.60;;;;;;5041483;28;88442;-65
2022/04/10 02:48:26;;;;;;;1.73;0.53;;;19.60;38.60;;;;;;5049233;27;92449;-65
2022/04/10 02:50:55;;;;;;;0.40;0.40;;;19.80;38.70;;;;;;5061411;27;89478;-65
2022/04/10 02:53:23;;;;;;;0.93;0.60;;;19.60;38.60;;;;;;5061744;27;89144;-65
2022/04/10 02:55:52;;;;;;;0.40;0.40;;;19.60;38.60;;;;;;5062270;27;88411;-65
2022/04/10 02:58:19;;;;;;;0.57;0.50;;;19.60;38.60;;;;;;5060870;27;89549;-65
2022/04/10 03:00:48;;;;;;;1.40;0.80;;;19.60;38.60;;;;;;5057278;27;90099;-65
2022/04/10 03:03:16;;;;;;;2.70;0.70;;;19.60;38.60;;;;;;5041154;27;89168;-67
2022/04/10 03:05:44;;;;;;;0.60;0.40;;;19.60;38.60;;;;;;5041305;28;88399;-65
2022/04/10 03:08:14;;;;;;;0.60;0.50;;;19.60;38.60;;;;;;5040999;28;91115;-65
2022/04/10 03:10:42;;;;;;;0.83;0.50;;;19.60;38.70;;;;;;5040695;27;93116;-67
2022/04/10 03:13:10;;;;;;;0.70;0.60;;;19.60;38.70;;;;;;5040815;27;90110;-67
2022/04/10 03:15:38;;;;;;;1.97;0.80;;;19.60;38.70;;;;;;5040907;28;88669;-68
2022/04/10 03:18:06;;;;;;;2.13;0.60;;;19.60;38.70;;;;;;5041243;27;90780;-68
2022/04/10 03:20:34;;;;;;;1.23;0.50;;;19.60;38.80;;;;;;5040731;27;88969;-68
2022/04/10 03:23:08;;;;;;;1.30;0.57;;;19.60;38.80;;;;;;5040771;28;88446;-69
2022/04/10 03:25:38;;;;;;;1.43;0.40;;;19.60;38.80;;;;;;5042023;27;88435;-71
2022/04/10 03:28:07;;;;;;;0.50;0.50;;;19.60;38.90;;;;;;5040708;28;90711;-69
2022/04/10 03:30:35;;;;;;;2.83;0.63;;;19.70;39.10;;;;;;5040676;28;92254;-70
2022/04/10 03:33:03;;;;;;;0.80;0.60;;;19.70;39.20;;;;;;5038891;27;88800;-70
2022/04/10 03:35:31;;;;;;;0.30;0.30;;;19.70;39.30;;;;;;5039823;27;88621;-70
2022/04/10 03:37:59;;;;;;;1.37;0.50;;;19.70;39.40;;;;;;5040243;27;89951;-69
2022/04/10 03:40:27;;;;;;;1.60;0.67;;;19.70;39.60;;;;;;5040806;27;89020;-70
2022/04/10 03:42:56;;;;;;;1.17;0.60;;;19.70;39.70;;;;;;5040704;28;88411;-70
2022/04/10 03:45:25;;;;;;;2.47;0.87;;;19.70;39.70;;;;;;5040316;28;88476;-70
2022/04/10 03:47:53;;;;;;;6.87;0.97;;;19.70;39.80;;;;;;5041014;28;90582;-71
2022/04/10 03:50:21;;;;;;;1.67;0.50;;;19.80;39.90;;;;;;5041266;28;90117;-68
2022/04/10 03:52:49;;;;;;;0.63;0.37;;;19.80;40.00;;;;;;5040954;28;89998;-68
2022/04/10 03:55:17;;;;;;;2.23;0.40;;;19.80;40.00;;;;;;5041386;28;88474;-72
2022/04/10 03:57:44;;;;;;;0.97;0.57;;;19.80;40.10;;;;;;5041128;28;92668;-71
2022/04/10 04:00:15;;;;;;;0.87;0.60;;;19.80;40.10;;;;;;5041006;28;90101;-70
2022/04/10 04:02:43;;;;;;;0.70;0.53;;;19.80;40.10;;;;;;5040686;28;89184;-70
2022/04/10 04:05:11;;;;;;;0.87;0.37;;;19.70;40.00;;;;;;5040232;28;88536;-70
2022/04/10 04:07:39;;;;;;;0.97;0.40;;;19.80;40.10;;;;;;5040069;28;89394;-71
2022/04/10 04:10:09;;;;;;;2.07;0.80;;;19.80;40.10;;;;;;5039481;28;88885;-70
2022/04/10 04:12:37;;;;;;;0.40;0.40;;;19.80;40.10;;;;;;5040424;28;88332;-70
2022/04/10 04:15:06;;;;;;;1.07;0.60;;;19.80;40.20;;;;;;5040809;28;88731;-71
2022/04/10 04:17:35;;;;;;;3.67;0.53;;;19.80;40.20;;;;;;5040281;28;92542;-68
2022/04/10 04:20:03;;;;;;;1.50;0.57;;;19.80;40.20;;;;;;5039744;28;88589;-70
2022/04/10 04:22:31;;;;;;;1.67;0.60;;;19.80;40.20;;;;;;5040523;27;88282;-70
2022/04/10 04:24:59;;;;;;;1.57;0.40;;;19.80;40.20;;;;;;5040121;27;88637;-71
2022/04/10 04:27:27;;;;;;;0.47;0.47;;;19.80;40.20;;;;;;5040160;28;90621;-70
2022/04/10 04:29:55;;;;;;;1.30;0.63;;;19.80;40.20;;;;;;5039537;28;90117;-70
2022/04/10 04:32:23;;;;;;;2.23;0.70;;;19.80;40.20;;;;;;5039029;28;88804;-71
2022/04/10 04:34:52;;;;;;;0.30;0.30;;;19.80;40.20;;;;;;5040390;27;88674;-70
2022/04/10 04:37:20;;;;;;;0.83;0.50;;;19.70;40.10;;;;;;5040136;28;90524;-70
2022/04/10 04:39:48;;;;;;;0.57;0.37;;;19.70;40.10;;;;;;5039719;28;90066;-70
2022/04/10 04:42:16;;;;;;;1.37;0.90;;;19.70;40.10;;;;;;5039543;28;88833;-70
2022/04/10 04:44:44;;;;;;;0.80;0.80;;;19.70;40.10;;;;;;5039307;28;88478;-70
2022/04/10 04:47:12;;;;;;;1.60;0.50;;;19.70;40.80;;;;;;5039485;28;92519;-70
2022/04/10 04:49:40;;;;;;;1.50;0.40;;;19.70;40.10;;;;;;5038972;28;90167;-70
2022/04/10 04:52:10;;;;;;;0.40;0.40;;;19.70;40.10;;;;;;5039628;28;91339;-70
2022/04/10 04:54:38;;;;;;;1.73;0.60;;;19.70;40.10;;;;;;5039843;28;89397;-70
2022/04/10 04:57:06;;;;;;;1.43;0.70;;;19.70;40.10;;;;;;5039747;28;92942;-70
2022/04/10 04:59:34;;;;;;;1.80;0.60;;;19.70;40.10;;;;;;5039177;28;90607;-71
2022/04/10 05:02:02;;;;;;;1.03;0.40;;;19.70;40.10;;;;;;5039847;28;88668;-69
2022/04/10 05:04:30;;;;;;;2.47;0.70;;;19.70;40.00;;;;;;5039432;28;88489;-70
2022/04/10 05:06:58;;;;;;;2.43;0.90;;;19.70;40.10;;;;;;5039622;28;90609;-69
2022/04/10 05:09:27;;;;;;;1.53;0.57;;;19.70;40.00;;;;;;5039280;28;88483;-70
2022/04/10 05:11:56;;;;;;;1.03;0.57;;;19.70;40.00;;;;;;5039880;28;88202;-69
2022/04/10 05:14:24;;;;;;;6.50;0.80;;;19.70;40.00;;;;;;5038855;28;88569;-70
2022/04/10 05:16:52;;;;;;;0.53;0.50;;;19.70;40.00;;;;;;5039282;27;90936;-69
2022/04/10 05:19:21;;;;;;;0.60;0.60;;;19.70;40.00;;;;;;5039083;28;90322;-71
2022/04/10 05:21:49;;;;;;;1.37;0.43;;;19.70;39.90;;;;;;5039436;27;89274;-70
2022/04/10 05:24:17;;;;;;;0.50;0.50;;;19.80;40.00;;;;;;5034359;28;88573;-70
2022/04/10 05:26:46;;;;;;;0.70;0.70;;;19.80;39.90;;;;;;5042598;27;89487;-70
2022/04/10 05:29:14;;;;;;;0.63;0.43;;;19.80;40.50;;;;;;5042961;27;88495;-70
2022/04/10 05:31:42;;;;;;;1.30;0.73;;;19.80;39.80;;;;;;5043321;28;88852;-70
2022/04/10 05:34:10;;;;;;;0.80;0.60;;;19.80;39.80;;;;;;5042796;28;88198;-69
2022/04/10 05:36:38;;;;;;;1.50;0.33;;;19.90;40.00;;;;;;5042531;28;92510;-72
2022/04/10 05:39:06;;;;;;;1.00;0.60;;;19.90;39.80;;;;;;5036954;28;90026;-67
2022/04/10 05:41:34;;;;;;;0.50;0.37;;;19.90;39.80;;;;;;5042091;28;90047;-67
2022/04/10 05:44:04;;;;;;;0.33;0.33;;;19.90;39.80;;;;;;5041441;28;88640;-70
2022/04/10 05:46:32;;;;;;;4.27;0.90;;;19.90;39.70;;;;;;5038899;27;89559;-68
2022/04/10 05:49:00;;;;;;;0.40;0.40;;;20.00;39.70;;;;;;5041393;27;88735;-68
2022/04/10 05:51:28;;;;;;;1.10;0.43;;;20.00;39.70;;;;;;5036814;27;88777;-69
2022/04/10 05:53:56;;;;;;;1.37;0.60;;;20.00;39.60;;;;;;5039344;28;88573;-68
2022/04/10 05:56:24;;;;;;;0.77;0.60;;;20.00;39.70;;;;;;5032985;27;90790;-67
2022/04/10 05:58:52;;;;;;;0.57;0.40;;;20.00;39.60;;;;;;5041205;28;89990;-69
2022/04/10 06:01:21;;;;;;;1.07;0.33;;;20.00;39.60;;;;;;5040684;27;88947;-68
2022/04/10 06:03:49;;;;;;;2.07;0.67;;;20.00;39.60;;;;;;5040893;27;88792;-68
2022/04/10 06:06:18;;;;;;;0.47;0.47;;;20.00;39.60;;;;;;5041648;28;90973;-69
2022/04/10 06:08:46;;;;;;;0.40;0.40;;;20.10;39.60;;;;;;5038940;28;91893;-70
2022/04/10 06:11:14;;;;;;;1.27;0.33;;;20.10;39.60;;;;;;5041740;27;88922;-70
2022/04/10 06:13:42;;;;;;;2.50;0.63;;;20.10;39.60;;;;;;5039680;28;88469;-67
2022/04/10 06:16:10;;;;;;;1.50;0.60;;;20.10;39.60;;;;;;5041954;27;89928;-65
2022/04/10 06:18:40;;;;;;;3.13;0.60;;;20.10;39.60;;;;;;5038755;28;88442;-67
2022/04/10 06:21:08;;;;;;;1.30;0.60;;;20.10;39.70;;;;;;5041182;28;89391;-67
2022/04/10 06:23:36;;;;;;;0.73;0.40;;;20.10;39.70;;;;;;5040817;28;88502;-68
2022/04/10 06:26:04;;;;;;;0.70;0.40;;;20.10;39.80;;;;;;5040753;28;89446;-68
2022/04/10 06:28:32;;;;;;;2.63;0.50;;;20.20;40.10;;;;;;5038164;27;90146;-68
2022/04/10 06:31:02;;;;;;;1.13;0.70;;;20.20;40.30;;;;;;5048890;27;89752;-66
2022/04/10 06:33:30;;;;;;;0.77;0.67;;;20.20;40.40;;;;;;5037340;27;88310;-67
2022/04/10 06:36:00;;;;;;;0.80;0.50;;;20.30;40.70;;;;;;5041285;27;90630;-68
2022/04/10 06:38:28;;;;;;;2.80;0.60;;;20.30;40.90;;;;;;5041147;27;93148;-67
2022/04/10 06:40:56;;;;;;;0.67;0.60;;;20.30;41.00;;;;;;5041939;27;89603;-67
2022/04/10 06:43:25;;;;;;;1.47;0.67;;;20.40;41.20;;;;;;5038899;28;88663;-66
2022/04/10 06:45:53;;;;;;;1.97;0.90;;;20.40;41.30;;;;;;5037288;27;89506;-63
2022/04/10 06:48:21;;;;;;;0.90;0.57;;;20.40;41.40;;;;;;5039152;27;90281;-64
2022/04/10 06:50:49;;;;;;;1.57;0.70;;;20.50;41.50;;;;;;5040254;27;88896;-63
2022/04/10 06:53:19;;;;;;;0.97;0.87;;;20.50;41.60;;;;;;5039330;27;88647;-63
2022/04/10 06:55:46;;;;;;;2.30;1.13;;;20.50;41.60;;;;;;5035378;28;90598;-63
2022/04/10 06:58:17;;;;;;;3.43;1.50;;;20.50;41.70;;;;;;5039811;28;90058;-63
2022/04/10 07:00:45;;;;;;;6.30;2.20;;;20.50;41.70;;;;;;5038430;28;88919;-63
2022/04/10 07:03:13;;;;;;;5.97;2.10;;;20.50;41.70;;;;;;5038397;27;88486;-64
2022/04/10 07:05:41;;;;;;;4.27;2.00;;;20.60;41.80;;;;;;5043834;27;93370;-63
2022/04/10 07:08:09;;;;;;;2.37;1.60;;;20.60;41.90;;;;;;5041606;27;91633;-63
2022/04/10 07:10:38;;;;;;;6.43;2.53;;;20.60;41.90;;;;;;5038991;27;92068;-63
2022/04/10 07:13:06;;;;;;;4.13;2.53;;;20.60;42.00;;;;;;5038638;27;88619;-64
2022/04/10 07:15:35;;;;;;;5.87;2.50;;;20.70;42.30;;;;;;5039621;27;92911;-64
2022/04/10 07:18:02;;;;;;;9.97;3.03;;;20.70;42.40;;;;;;5038381;27;91063;-64
2022/04/10 07:20:31;;;;;;;3.97;3.00;;;20.70;42.50;;;;;;5036556;27;89494;-65
2022/04/10 07:25:45;;;;;;;7.47;3.40;;;20.70;42.60;;;;;;5034326;28;90835;-66
2022/04/10 07:28:13;;;;;;;10.83;3.07;;;20.70;42.70;;;;;;5039036;27;90415;-66
2022/04/10 07:30:42;;;;;;;4.80;2.83;;;20.60;42.80;;;;;;5038440;27;88526;-66
2022/04/10 07:33:10;;;;;;;6.40;3.97;;;20.60;42.80;;;;;;5039557;28;88515;-66
2022/04/10 07:35:40;;;;;;;4.90;2.73;;;20.70;42.90;;;;;;5038077;27;90556;-66
2022/04/10 07:38:10;;;;;;;4.33;2.80;;;20.60;42.90;;;;;;5038418;28;90069;-66
2022/04/10 07:40:39;;;;;;;6.20;3.70;;;20.60;43.00;;;;;;5037706;27;89536;-65
2022/04/10 07:43:08;;;;;;;5.17;3.30;;;20.60;43.00;;;;;;5038414;27;90410;-65
2022/04/10 07:48:22;;;;;;;8.10;3.87;;;20.60;43.10;;;;;;5038495;27;89841;-66
2022/04/10 07:50:50;;;;;;;11.43;5.93;;;20.60;43.80;;;;;;5040798;27;90818;-66
2022/04/10 07:53:19;;;;;;;12.83;8.13;;;20.50;43.20;;;;;;5036485;27;88699;-65
2022/04/10 07:55:47;;;;;;;22.43;8.93;;;20.50;43.20;;;;;;5040402;27;90700;-66
2022/04/10 07:58:16;;;;;;;22.33;10.03;;;20.60;43.30;;;;;;5037802;27;92853;-66
2022/04/10 08:00:44;;;;;;;16.50;9.83;;;20.50;43.20;;;;;;5035204;27;88955;-66
2022/04/10 08:03:12;;;;;;;22.67;10.00;;;20.50;43.20;;;;;;5037340;27;88563;-66
2022/04/10 08:05:40;;;;;;;28.30;13.10;;;20.50;43.30;;;;;;5037721;28;90788;-66
2022/04/10 08:08:10;;;;;;;23.77;11.67;;;20.50;43.30;;;;;;5038524;27;89108;-66
2022/04/10 08:10:38;;;;;;;31.03;12.30;;;20.50;43.30;;;;;;5037883;27;89918;-66
2022/04/10 08:13:07;;;;;;;28.73;13.33;;;20.50;43.20;;;;;;5042854;27;88454;-65
2022/04/10 08:15:36;;;;;;;23.37;12.40;;;20.50;43.20;;;;;;5038933;27;89635;-66
2022/04/10 08:18:10;;;;;;;33.57;14.90;;;20.50;43.20;;;;;;5038208;27;91981;-66
2022/04/10 08:20:38;;;;;;;27.23;13.80;;;20.50;43.20;;;;;;5038616;27;88946;-66
2022/04/10 08:23:08;;;;;;;33.43;14.70;;;20.50;43.20;;;;;;5040367;27;88693;-66
2022/04/10 08:25:36;;;;;;;33.67;13.93;;;20.50;43.20;;;;;;5043843;27;93731;-67
2022/04/10 08:28:05;;;;;;;28.37;12.90;;;20.50;43.20;;;;;;5043530;27;93084;-67
2022/04/10 08:30:33;;;;;;;31.43;13.03;;;20.60;43.20;;;;;;5038857;27;89411;-66
2022/04/10 08:33:03;;;;;;;28.67;12.33;;;20.60;43.20;;;;;;5038040;27;90055;-66
2022/04/10 08:35:31;;;;;;;37.03;13.63;;;20.60;43.20;;;;;;5044278;27;90659;-66
2022/04/10 08:38:00;;;;;;;29.37;13.47;;;20.50;43.10;;;;;;5040947;27;89669;-66
2022/04/10 08:40:28;;;;;;;32.50;13.07;;;20.50;43.10;;;;;;5041587;27;88344;-67
2022/04/10 08:42:56;;;;;;;29.30;12.37;;;20.60;43.20;;;;;;5042858;27;88419;-66
2022/04/10 08:45:25;;;;;;;26.10;10.87;;;20.60;43.20;;;;;;5040608;27;93662;-67
2022/04/10 08:47:53;;;;;;;20.10;11.90;;;20.60;43.20;;;;;;5042998;27;88380;-67
2022/04/10 08:50:24;;;;;;;21.40;10.73;;;20.60;43.20;;;;;;5043211;27;88919;-67
2022/04/10 08:52:54;;;;;;;23.70;11.10;;;20.60;43.20;;;;;;5041282;27;88472;-66
2022/04/10 08:55:22;;;;;;;23.37;11.13;;;20.60;43.30;;;;;;5040396;27;91220;-67
2022/04/10 08:57:50;;;;;;;21.17;11.33;;;20.60;43.40;;;;;;5039770;27;89205;-67
2022/04/10 09:00:20;;;;;;;22.53;9.87;;;20.70;43.60;;;;;;5041100;27;91199;-66
2022/04/10 09:02:48;;;;;;;23.37;10.20;;;20.70;43.60;;;;;;5041555;27;88641;-66
2022/04/10 09:05:17;;;;;;;19.67;8.70;;;20.80;44.00;;;;;;5043925;27;90937;-65
2022/04/10 09:08:06;;;;;;;23.93;8.97;;;20.90;44.30;;;;;;5038302;27;88862;-66
2022/04/10 09:10:56;;;;;;;23.80;8.73;;;20.90;44.80;;;;;;5040579;27;88802;-66
2022/04/10 09:13:26;;;;;;;24.03;9.37;;;21.00;45.20;;;;;;5039675;27;88628;-66
2022/04/10 09:16:01;;;;;;;46.30;17.07;;;21.10;46.00;;;;;;5039780;27;90895;-66
2022/04/10 09:18:29;;;;;;;53.00;16.60;;;21.10;45.50;;;;;;5051675;27;89954;-66
2022/04/10 09:21:06;;;;;;;48.30;17.30;;;21.20;46.40;;;;;;5039346;27;90824;-67
2022/04/10 09:23:36;;;;;;;46.23;14.30;;;21.20;45.80;;;;;;5037319;27;88499;-65
2022/04/10 09:26:04;;;;;;;36.50;14.07;;;21.20;45.90;;;;;;5039207;27;90880;-66
2022/04/10 09:28:42;;;;;;;32.80;14.23;;;21.20;45.90;;;;;;5033739;27;90086;-66
2022/04/10 09:31:32;;;;;;;35.93;12.77;;;21.10;45.90;;;;;;5034140;27;89099;-66
2022/04/10 09:34:01;;;;;;;28.13;11.73;;;21.10;46.50;;;;;;5037343;27;90117;-66
2022/04/10 09:36:34;;;;;;;28.30;11.63;;;21.10;45.80;;;;;;5046623;27;90721;-66
2022/04/10 09:39:05;;;;;;;24.47;10.33;;;21.10;45.80;;;;;;5044836;27;93527;-66
2022/04/10 09:41:33;;;;;;;21.17;9.93;;;21.10;45.70;;;;;;5037263;27;88748;-66
2022/04/10 09:44:02;;;;;;;20.80;9.17;;;21.10;45.60;;;;;;5042179;27;88891;-66
2022/04/10 09:46:31;;;;;;;19.27;8.57;;;21.10;45.60;;;;;;5037361;27;90609;-66
2022/04/10 09:49:04;;;;;;;22.17;8.43;;;21.10;45.50;;;;;;5034863;28;90635;-66
2022/04/10 09:51:32;;;;;;;18.23;8.40;;;21.10;45.40;;;;;;5034917;28;88558;-66
2022/04/10 09:54:05;;;;;;;19.30;7.93;;;21.10;45.30;;;;;;5036246;28;88837;-66
2022/04/10 09:56:33;;;;;;;15.93;7.47;;;21.10;45.20;;;;;;5036503;28;90802;-67
2022/04/10 09:59:04;;;;;;;14.67;7.37;;;21.10;45.10;;;;;;5035126;28;90440;-67
2022/04/10 10:01:32;;;;;;;14.33;6.57;;;21.10;45.00;;;;;;5037495;28;90162;-66
2022/04/10 10:04:00;;;;;;;13.67;6.57;;;21.10;44.80;;;;;;5035046;28;88599;-66
2022/04/10 10:06:28;;;;;;;15.23;6.00;;;21.10;44.70;;;;;;5036549;27;90750;-66
2022/04/10 10:08:56;;;;;;;12.63;5.43;;;21.10;44.70;;;;;;5041280;27;90152;-67
2022/04/10 10:11:25;;;;;;;9.20;4.93;;;21.10;44.60;;;;;;5043280;27;91482;-67
2022/04/10 10:13:53;;;;;;;12.23;5.53;;;21.10;44.50;;;;;;5040428;27;88669;-67
2022/04/10 10:16:21;;;;;;;9.50;5.13;;;21.10;44.40;;;;;;5042586;27;91987;-66
2022/04/10 10:18:49;;;;;;;10.60;5.07;;;21.10;44.30;;;;;;5041776;27;91459;-66
2022/04/10 10:21:17;;;;;;;9.93;5.03;;;21.10;44.20;;;;;;5044775;27;89340;-66
2022/04/10 10:23:48;;;;;;;13.17;5.20;;;21.10;44.20;;;;;;5041250;27;88578;-66
2022/04/10 10:26:27;;;;;;;10.27;4.50;;;21.10;44.10;;;;;;5045650;27;90649;-66
2022/04/10 10:29:18;;;;;;;7.27;4.37;;;21.10;44.00;;;;;;5041981;27;89295;-65
2022/04/10 10:31:50;;;;;;;6.07;4.17;;;21.10;43.90;;;;;;5041740;27;88911;-66
2022/04/10 10:34:18;;;;;;;8.73;4.77;;;21.10;43.90;;;;;;5034606;27;88706;-66
2022/04/10 10:36:46;;;;;;;8.83;4.87;;;21.10;43.80;;;;;;5041499;27;90639;-66
2022/04/10 10:39:14;;;;;;;8.90;4.60;;;21.10;43.70;;;;;;5038905;28;90048;-66
2022/04/10 10:41:44;;;;;;;8.17;5.20;;;21.10;43.70;;;;;;5039124;27;89405;-66
2022/04/10 10:44:18;;;;;;;8.70;4.73;;;21.20;43.70;;;;;;5039535;27;88436;-66
2022/04/10 10:47:00;;;;;;;9.40;5.90;;;21.20;43.60;;;;;;5039311;27;90676;-66
2022/04/10 10:49:30;;;;;;;10.20;4.80;;;21.20;43.50;;;;;;5039900;27;89091;-67
2022/04/10 10:52:08;;;;;;;10.47;5.27;;;21.20;43.40;;;;;;5041020;27;89523;-67
2022/04/10 10:54:36;;;;;;;9.00;4.93;;;21.20;43.40;;;;;;5039485;27;89272;-66
2022/04/10 10:57:24;;;;;;;11.27;5.53;;;21.20;43.30;;;;;;5041247;27;90683;-66
2022/04/10 10:59:52;;;;;;;10.63;5.50;;;21.20;43.30;;;;;;5039513;27;90027;-66
2022/04/10 11:02:21;;;;;;;10.57;5.30;;;21.30;43.30;;;;;;5041203;27;90158;-66
2022/04/10 11:05:10;;;;;;;8.53;5.13;;;21.30;43.20;;;;;;5034763;27;88522;-66
2022/04/10 11:07:40;;;;;;;9.67;5.83;;;21.30;43.20;;;;;;5037591;27;89622;-66
2022/04/10 11:10:09;;;;;;;7.43;4.97;;;21.30;43.10;;;;;;5037982;27;89888;-66
2022/04/10 11:12:49;;;;;;;6.27;4.17;;;21.30;43.00;;;;;;5039759;27;88887;-67
2022/04/10 11:15:21;;;;;;;7.33;4.40;;;21.30;42.90;;;;;;5037165;28;89339;-66
2022/04/10 11:17:49;;;;;;;9.00;4.47;;;21.30;42.80;;;;;;5038836;28;91399;-66
2022/04/10 11:20:19;;;;;;;8.17;3.73;;;21.30;42.80;;;;;;5038572;27;88403;-66
2022/04/10 11:22:48;;;;;;;11.43;4.47;;;21.30;42.80;;;;;;5039925;27;89068;-66
2022/04/10 11:25:18;;;;;;;7.50;4.10;;;21.30;42.80;;;;;;5040315;28;88575;-67
2022/04/10 11:27:51;;;;;;;8.50;4.50;;;21.20;42.80;;;;;;5038990;27;90778;-66
2022/04/10 11:30:23;;;;;;;8.17;4.40;;;21.20;42.80;;;;;;5040232;28;90063;-67
2022/04/10 11:32:53;;;;;;;9.37;4.53;;;21.20;42.80;;;;;;5039510;27;88874;-66
2022/04/10 11:35:25;;;;;;;8.63;4.33;;;21.20;42.80;;;;;;5040300;28;89681;-67
2022/04/10 11:37:54;;;;;;;5.40;3.70;;;21.30;42.80;;;;;;5037737;28;92854;-66
2022/04/10 11:40:24;;;;;;;8.77;3.60;;;21.30;42.70;;;;;;5037776;28;90143;-66
2022/04/10 11:42:54;;;;;;;7.43;3.50;;;21.30;42.70;;;;;;5039288;28;88874;-66
2022/04/10 11:45:23;;;;;;;5.73;2.93;;;21.30;42.60;;;;;;5037972;28;88498;-66
2022/04/10 11:47:51;;;;;;;5.73;2.83;;;21.30;42.60;;;;;;5040081;27;90775;-66
2022/04/10 11:50:19;;;;;;;6.07;3.03;;;21.30;42.60;;;;;;5039803;28;88816;-66
2022/04/10 11:52:58;;;;;;;7.40;2.67;;;21.30;42.60;;;;;;5039814;28;88859;-66
2022/04/10 11:55:30;;;;;;;5.60;3.27;;;21.30;42.50;;;;;;5035273;28;88620;-66
2022/04/10 11:58:00;;;;;;;5.67;2.90;;;21.30;42.50;;;;;;5038968;28;90561;-66
2022/04/10 12:00:28;;;;;;;5.63;2.80;;;21.40;42.50;;;;;;5039022;28;89677;-66
2022/04/10 12:02:56;;;;;;;5.10;2.67;;;21.40;42.50;;;;;;5037539;28;88515;-66
2022/04/10 12:05:29;;;;;;;4.50;2.73;;;21.40;42.50;;;;;;5039436;27;88491;-66
2022/04/10 12:08:01;;;;;;;5.27;2.90;;;21.40;42.40;;;;;;5037779;28;92498;-66
2022/04/10 12:10:29;;;;;;;3.50;2.37;;;21.40;42.40;;;;;;5037389;27;89207;-66
2022/04/10 12:12:58;;;;;;;4.37;2.50;;;21.40;42.40;;;;;;5039489;28;88606;-67
2022/04/10 12:15:27;;;;;;;4.43;2.90;;;21.40;42.40;;;;;;5039305;27;88471;-67
2022/04/10 12:18:08;;;;;;;3.30;2.27;;;21.40;42.30;;;;;;5039175;28;90570;-66
2022/04/10 12:20:36;;;;;;;3.97;2.30;;;21.40;42.30;;;;;;5038729;28;90225;-66
2022/04/10 12:23:19;;;;;;;7.57;2.60;;;21.50;42.40;;;;;;5039221;28;89690;-66
2022/04/10 12:25:48;;;;;;;3.03;2.30;;;21.30;42.20;;;;;;5039474;27;88518;-66
2022/04/10 12:28:17;;;;;;;3.87;2.40;;;21.50;42.30;;;;;;5039543;28;90709;-66
2022/04/10 12:30:45;;;;;;;5.37;2.50;;;21.50;42.30;;;;;;5039798;27;90097;-66
2022/04/10 12:33:14;;;;;;;5.47;2.60;;;21.50;42.30;;;;;;5040051;28;88693;-66
2022/04/10 12:35:43;;;;;;;7.57;2.33;;;21.60;42.30;;;;;;5038658;28;88757;-66
2022/04/10 12:38:12;;;;;;;5.90;2.30;;;21.60;42.30;;;;;;5039576;28;90731;-66
2022/04/10 12:40:41;;;;;;;3.47;2.00;;;21.60;42.20;;;;;;5038250;28;92665;-66
2022/04/10 12:43:10;;;;;;;3.03;2.10;;;21.60;42.20;;;;;;5038728;27;88983;-67
2022/04/10 12:45:40;;;;;;;6.63;2.57;;;21.60;42.20;;;;;;5039971;28;88689;-67
2022/04/10 12:48:20;;;;;;;3.60;1.87;;;21.60;42.30;;;;;;5040348;28;90435;-67
2022/04/10 12:51:05;;;;;;;3.40;1.77;;;21.60;42.30;;;;;;5039520;28;90010;-66
2022/04/10 12:53:33;;;;;;;4.17;1.47;;;21.60;42.30;;;;;;5039368;27;88391;-66
2022/04/10 12:56:01;;;;;;;3.70;1.77;;;21.70;42.30;;;;;;5039229;28;88690;-67
2022/04/10 12:58:30;;;;;;;3.20;1.87;;;21.60;42.30;;;;;;5039385;28;90701;-66
2022/04/10 13:01:01;;;;;;;2.50;1.63;;;21.60;42.30;;;;;;5039940;28;88550;-66